sensor_id;sensor_type;location;lat;lon;timestamp;temperature;humidity
10903;DHT22;5504;47.312;11.060;2024-03-02T00:01:30;9.30;90.90
10903;DHT22;5504;47.312;11.060;2024-03-02T00:03:56;9.40;91.10
10903;DHT22;5504;47.312;11.060;2024-03-02T00:06:21;9.40;91.00
10903;DHT22;5504;47.312;11.060;2024-03-02T00:08:47;9.40;90.90
10903;DHT22;5504;47.312;11.060;2024-03-02T00:11:13;9.40;91.00
10903;DHT22;5504;47.312;11.060;2024-03-02T00:13:40;9.40;90.90
10903;DHT22;5504;47.312;11.060;2024-03-02T00:16:06;9.40;90.70
10903;DHT22;5504;47.312;11.060;2024-03-02T00:18:34;9.50;90.70
10903;DHT22;5504;47.312;11.060;2024-03-02T00:21:00;9.50;90.70
10903;DHT22;5504;47.312;11.060;2024-03-02T00:23:30;9.50;90.70
10903;DHT22;5504;47.312;11.060;2024-03-02T00:25:57;9.40;90.60
10903;DHT22;5504;47.312;11.060;2024-03-02T00:28:25;9.40;90.60
10903;DHT22;5504;47.312;11.060;2024-03-02T00:33:25;9.40;90.30
10903;DHT22;5504;47.312;11.060;2024-03-02T00:35:51;9.40;90.50
10903;DHT22;5504;47.312;11.060;2024-03-02T00:38:18;9.40;90.40
10903;DHT22;5504;47.312;11.060;2024-03-02T00:40:44;9.40;90.50
10903;DHT22;5504;47.312;11.060;2024-03-02T00:45:51;9.30;90.60
10903;DHT22;5504;47.312;11.060;2024-03-02T00:48:17;9.30;90.70
10903;DHT22;5504;47.312;11.060;2024-03-02T00:50:42;9.30;90.90
10903;DHT22;5504;47.312;11.060;2024-03-02T00:53:12;9.30;90.70
10903;DHT22;5504;47.312;11.060;2024-03-02T00:55:38;9.30;90.70
10903;DHT22;5504;47.312;11.060;2024-03-02T00:58:05;9.30;90.80
10903;DHT22;5504;47.312;11.060;2024-03-02T01:00:30;9.30;90.70
10903;DHT22;5504;47.312;11.060;2024-03-02T01:02:56;9.30;90.90
10903;DHT22;5504;47.312;11.060;2024-03-02T01:05:22;9.30;90.90
10903;DHT22;5504;47.312;11.060;2024-03-02T01:07:47;9.30;90.90
10903;DHT22;5504;47.312;11.060;2024-03-02T01:10:13;9.40;90.90
10903;DHT22;5504;47.312;11.060;2024-03-02T01:12:39;9.30;90.80
10903;DHT22;5504;47.312;11.060;2024-03-02T01:15:05;9.40;90.80
10903;DHT22;5504;47.312;11.060;2024-03-02T01:17:33;9.40;90.80
10903;DHT22;5504;47.312;11.060;2024-03-02T01:19:59;9.40;90.90
10903;DHT22;5504;47.312;11.060;2024-03-02T01:22:25;9.30;90.80
10903;DHT22;5504;47.312;11.060;2024-03-02T01:24:51;9.30;90.90
10903;DHT22;5504;47.312;11.060;2024-03-02T01:27:17;9.30;90.80
10903;DHT22;5504;47.312;11.060;2024-03-02T01:29:42;9.30;90.90
10903;DHT22;5504;47.312;11.060;2024-03-02T01:32:08;9.30;90.90
10903;DHT22;5504;47.312;11.060;2024-03-02T01:34:34;9.30;90.90
10903;DHT22;5504;47.312;11.060;2024-03-02T01:37:00;9.30;90.90
10903;DHT22;5504;47.312;11.060;2024-03-02T01:39:25;9.30;90.90
10903;DHT22;5504;47.312;11.060;2024-03-02T01:41:51;9.30;90.80
10903;DHT22;5504;47.312;11.060;2024-03-02T01:44:17;9.30;90.80
10903;DHT22;5504;47.312;11.060;2024-03-02T01:46:42;9.20;90.90
10903;DHT22;5504;47.312;11.060;2024-03-02T01:49:08;9.30;91.10
10903;DHT22;5504;47.312;11.060;2024-03-02T01:51:34;9.30;91.10
10903;DHT22;5504;47.312;11.060;2024-03-02T01:54:00;9.20;91.10
10903;DHT22;5504;47.312;11.060;2024-03-02T01:56:26;9.20;91.40
10903;DHT22;5504;47.312;11.060;2024-03-02T01:58:51;9.30;91.10
10903;DHT22;5504;47.312;11.060;2024-03-02T02:01:17;9.30;91.10
10903;DHT22;5504;47.312;11.060;2024-03-02T02:03:44;9.30;91.00
10903;DHT22;5504;47.312;11.060;2024-03-02T02:06:10;9.20;90.90
10903;DHT22;5504;47.312;11.060;2024-03-02T02:08:37;9.20;91.00
10903;DHT22;5504;47.312;11.060;2024-03-02T02:11:04;9.10;91.00
10903;DHT22;5504;47.312;11.060;2024-03-02T02:13:30;9.20;91.00
10903;DHT22;5504;47.312;11.060;2024-03-02T02:16:04;9.00;90.80
10903;DHT22;5504;47.312;11.060;2024-03-02T02:18:30;9.00;91.00
10903;DHT22;5504;47.312;11.060;2024-03-02T02:20:56;9.10;91.10
10903;DHT22;5504;47.312;11.060;2024-03-02T02:23:22;9.10;90.90
10903;DHT22;5504;47.312;11.060;2024-03-02T02:25:47;9.10;90.90
10903;DHT22;5504;47.312;11.060;2024-03-02T02:28:13;8.90;90.90
10903;DHT22;5504;47.312;11.060;2024-03-02T02:30:39;8.90;91.00
10903;DHT22;5504;47.312;11.060;2024-03-02T02:33:05;8.90;91.20
10903;DHT22;5504;47.312;11.060;2024-03-02T02:35:30;8.90;91.20
10903;DHT22;5504;47.312;11.060;2024-03-02T02:37:57;8.80;91.10
10903;DHT22;5504;47.312;11.060;2024-03-02T02:40:24;8.70;91.10
10903;DHT22;5504;47.312;11.060;2024-03-02T02:42:50;8.60;91.40
10903;DHT22;5504;47.312;11.060;2024-03-02T02:45:17;8.60;91.40
10903;DHT22;5504;47.312;11.060;2024-03-02T02:47:44;8.70;91.40
10903;DHT22;5504;47.312;11.060;2024-03-02T02:50:11;8.60;91.40
10903;DHT22;5504;47.312;11.060;2024-03-02T02:52:38;8.60;91.40
10903;DHT22;5504;47.312;11.060;2024-03-02T02:55:07;8.70;91.70
10903;DHT22;5504;47.312;11.060;2024-03-02T02:57:33;8.70;91.70
10903;DHT22;5504;47.312;11.060;2024-03-02T03:00:08;8.70;91.60
10903;DHT22;5504;47.312;11.060;2024-03-02T03:02:46;8.70;91.60
10903;DHT22;5504;47.312;11.060;2024-03-02T03:05:13;8.70;91.40
10903;DHT22;5504;47.312;11.060;2024-03-02T03:07:40;8.70;91.30
10903;DHT22;5504;47.312;11.060;2024-03-02T03:10:07;8.80;91.30
10903;DHT22;5504;47.312;11.060;2024-03-02T03:12:34;8.80;91.30
10903;DHT22;5504;47.312;11.060;2024-03-02T03:15:00;8.70;91.10
10903;DHT22;5504;47.312;11.060;2024-03-02T03:17:27;8.70;91.20
10903;DHT22;5504;47.312;11.060;2024-03-02T03:19:53;8.70;91.30
10903;DHT22;5504;47.312;11.060;2024-03-02T03:22:18;8.70;91.30
10903;DHT22;5504;47.312;11.060;2024-03-02T03:24:44;8.60;91.20
10903;DHT22;5504;47.312;11.060;2024-03-02T03:27:10;8.60;91.40
10903;DHT22;5504;47.312;11.060;2024-03-02T03:29:39;8.50;91.40
10903;DHT22;5504;47.312;11.060;2024-03-02T03:32:05;8.40;91.60
10903;DHT22;5504;47.312;11.060;2024-03-02T03:34:35;8.50;91.80
10903;DHT22;5504;47.312;11.060;2024-03-02T03:37:01;8.60;91.70
10903;DHT22;5504;47.312;11.060;2024-03-02T03:39:27;8.50;91.50
10903;DHT22;5504;47.312;11.060;2024-03-02T03:41:54;8.60;91.50
10903;DHT22;5504;47.312;11.060;2024-03-02T03:44:19;8.50;91.60
10903;DHT22;5504;47.312;11.060;2024-03-02T03:46:45;8.50;91.60
10903;DHT22;5504;47.312;11.060;2024-03-02T03:49:11;8.50;91.60
10903;DHT22;5504;47.312;11.060;2024-03-02T03:51:37;8.50;91.60
10903;DHT22;5504;47.312;11.060;2024-03-02T03:54:02;8.50;91.70
10903;DHT22;5504;47.312;11.060;2024-03-02T03:56:28;8.50;91.70
10903;DHT22;5504;47.312;11.060;2024-03-02T03:58:54;8.60;91.80
10903;DHT22;5504;47.312;11.060;2024-03-02T04:01:19;8.60;91.70
10903;DHT22;5504;47.312;11.060;2024-03-02T04:03:47;8.50;91.60
10903;DHT22;5504;47.312;11.060;2024-03-02T04:06:13;8.50;91.60
10903;DHT22;5504;47.312;11.060;2024-03-02T04:08:41;8.50;91.70
10903;DHT22;5504;47.312;11.060;2024-03-02T04:11:06;8.40;91.80
10903;DHT22;5504;47.312;11.060;2024-03-02T04:13:33;8.40;91.80
10903;DHT22;5504;47.312;11.060;2024-03-02T04:15:59;8.50;91.70
10903;DHT22;5504;47.312;11.060;2024-03-02T04:18:25;8.40;91.60
10903;DHT22;5504;47.312;11.060;2024-03-02T04:20:50;8.40;91.70
10903;DHT22;5504;47.312;11.060;2024-03-02T04:23:16;8.40;91.90
10903;DHT22;5504;47.312;11.060;2024-03-02T04:25:42;8.40;91.90
10903;DHT22;5504;47.312;11.060;2024-03-02T04:28:08;8.50;91.90
10903;DHT22;5504;47.312;11.060;2024-03-02T04:30:33;8.50;91.80
10903;DHT22;5504;47.312;11.060;2024-03-02T04:32:59;8.40;91.80
10903;DHT22;5504;47.312;11.060;2024-03-02T04:35:25;8.40;91.90
10903;DHT22;5504;47.312;11.060;2024-03-02T04:37:51;8.40;92.00
10903;DHT22;5504;47.312;11.060;2024-03-02T04:40:16;8.30;91.90
10903;DHT22;5504;47.312;11.060;2024-03-02T04:42:42;8.30;92.10
10903;DHT22;5504;47.312;11.060;2024-03-02T04:45:08;8.30;92.20
10903;DHT22;5504;47.312;11.060;2024-03-02T04:47:34;8.30;92.10
10903;DHT22;5504;47.312;11.060;2024-03-02T04:50:00;8.30;92.20
10903;DHT22;5504;47.312;11.060;2024-03-02T04:52:26;8.30;92.30
10903;DHT22;5504;47.312;11.060;2024-03-02T04:54:51;8.30;92.30
10903;DHT22;5504;47.312;11.060;2024-03-02T04:57:43;8.30;92.30
10903;DHT22;5504;47.312;11.060;2024-03-02T05:00:09;8.30;92.50
10903;DHT22;5504;47.312;11.060;2024-03-02T05:02:35;8.30;92.60
10903;DHT22;5504;47.312;11.060;2024-03-02T05:05:01;8.30;92.60
10903;DHT22;5504;47.312;11.060;2024-03-02T05:07:28;8.30;92.40
10903;DHT22;5504;47.312;11.060;2024-03-02T05:09:53;8.30;92.30
10903;DHT22;5504;47.312;11.060;2024-03-02T05:12:19;8.40;92.50
10903;DHT22;5504;47.312;11.060;2024-03-02T05:15:20;8.30;92.40
10903;DHT22;5504;47.312;11.060;2024-03-02T05:17:47;8.30;92.40
10903;DHT22;5504;47.312;11.060;2024-03-02T05:20:12;8.30;92.50
10903;DHT22;5504;47.312;11.060;2024-03-02T05:22:38;8.30;92.70
10903;DHT22;5504;47.312;11.060;2024-03-02T05:25:05;8.40;92.70
10903;DHT22;5504;47.312;11.060;2024-03-02T05:27:31;8.30;92.50
10903;DHT22;5504;47.312;11.060;2024-03-02T05:30:00;8.30;92.60
10903;DHT22;5504;47.312;11.060;2024-03-02T05:32:25;8.30;92.60
10903;DHT22;5504;47.312;11.060;2024-03-02T05:34:51;8.30;92.60
10903;DHT22;5504;47.312;11.060;2024-03-02T05:37:17;8.30;92.60
10903;DHT22;5504;47.312;11.060;2024-03-02T05:39:43;8.20;92.60
10903;DHT22;5504;47.312;11.060;2024-03-02T05:42:09;8.20;92.80
10903;DHT22;5504;47.312;11.060;2024-03-02T05:44:36;8.30;93.00
10903;DHT22;5504;47.312;11.060;2024-03-02T05:47:02;8.20;92.70
10903;DHT22;5504;47.312;11.060;2024-03-02T05:49:28;8.20;92.70
10903;DHT22;5504;47.312;11.060;2024-03-02T05:51:54;8.20;92.70
10903;DHT22;5504;47.312;11.060;2024-03-02T05:54:20;8.10;92.80
10903;DHT22;5504;47.312;11.060;2024-03-02T05:56:45;8.10;93.00
10903;DHT22;5504;47.312;11.060;2024-03-02T05:59:11;8.10;93.10
10903;DHT22;5504;47.312;11.060;2024-03-02T06:01:45;8.20;93.00
10903;DHT22;5504;47.312;11.060;2024-03-02T06:04:20;8.20;93.00
10903;DHT22;5504;47.312;11.060;2024-03-02T06:06:46;8.10;93.00
10903;DHT22;5504;47.312;11.060;2024-03-02T06:09:12;8.10;93.00
10903;DHT22;5504;47.312;11.060;2024-03-02T06:11:39;8.10;93.00
10903;DHT22;5504;47.312;11.060;2024-03-02T06:14:07;8.20;93.10
10903;DHT22;5504;47.312;11.060;2024-03-02T06:16:33;8.20;93.10
10903;DHT22;5504;47.312;11.060;2024-03-02T06:18:59;8.20;93.00
10903;DHT22;5504;47.312;11.060;2024-03-02T06:21:25;8.20;93.10
10903;DHT22;5504;47.312;11.060;2024-03-02T06:23:51;8.30;93.00
10903;DHT22;5504;47.312;11.060;2024-03-02T06:26:17;8.30;92.90
10903;DHT22;5504;47.312;11.060;2024-03-02T06:28:44;8.20;92.80
10903;DHT22;5504;47.312;11.060;2024-03-02T06:31:10;8.30;93.00
10903;DHT22;5504;47.312;11.060;2024-03-02T06:33:35;8.40;93.10
10903;DHT22;5504;47.312;11.060;2024-03-02T06:36:02;8.40;92.90
10903;DHT22;5504;47.312;11.060;2024-03-02T06:38:28;8.50;92.70
10903;DHT22;5504;47.312;11.060;2024-03-02T06:40:54;8.70;92.70
10903;DHT22;5504;47.312;11.060;2024-03-02T06:43:21;8.90;92.40
10903;DHT22;5504;47.312;11.060;2024-03-02T06:45:52;8.80;92.10
10903;DHT22;5504;47.312;11.060;2024-03-02T06:48:19;8.90;91.90
10903;DHT22;5504;47.312;11.060;2024-03-02T06:50:49;8.60;91.80
10903;DHT22;5504;47.312;11.060;2024-03-02T06:53:16;8.50;92.10
10903;DHT22;5504;47.312;11.060;2024-03-02T06:55:46;8.50;92.40
10903;DHT22;5504;47.312;11.060;2024-03-02T06:58:15;8.70;92.50
10903;DHT22;5504;47.312;11.060;2024-03-02T07:00:42;8.70;92.40
10903;DHT22;5504;47.312;11.060;2024-03-02T07:03:07;8.70;92.40
10903;DHT22;5504;47.312;11.060;2024-03-02T07:05:33;8.70;92.70
10903;DHT22;5504;47.312;11.060;2024-03-02T07:07:59;8.80;92.80
10903;DHT22;5504;47.312;11.060;2024-03-02T07:10:26;8.90;93.00
10903;DHT22;5504;47.312;11.060;2024-03-02T07:12:52;9.10;93.10
10903;DHT22;5504;47.312;11.060;2024-03-02T07:15:18;9.30;92.90
10903;DHT22;5504;47.312;11.060;2024-03-02T07:17:49;9.50;92.60
10903;DHT22;5504;47.312;11.060;2024-03-02T07:20:15;9.70;92.30
10903;DHT22;5504;47.312;11.060;2024-03-02T07:22:41;9.90;91.90
10903;DHT22;5504;47.312;11.060;2024-03-02T07:25:06;10.00;91.20
10903;DHT22;5504;47.312;11.060;2024-03-02T07:27:33;10.10;91.30
10903;DHT22;5504;47.312;11.060;2024-03-02T07:30:03;10.20;91.10
10903;DHT22;5504;47.312;11.060;2024-03-02T07:32:29;10.40;90.70
10903;DHT22;5504;47.312;11.060;2024-03-02T07:34:55;10.70;90.50
10903;DHT22;5504;47.312;11.060;2024-03-02T07:37:22;10.90;89.80
10903;DHT22;5504;47.312;11.060;2024-03-02T07:39:48;11.10;88.80
10903;DHT22;5504;47.312;11.060;2024-03-02T07:42:13;11.10;87.90
10903;DHT22;5504;47.312;11.060;2024-03-02T07:44:39;10.80;89.10
10903;DHT22;5504;47.312;11.060;2024-03-02T07:47:05;10.70;89.20
10903;DHT22;5504;47.312;11.060;2024-03-02T07:49:31;10.70;89.90
10903;DHT22;5504;47.312;11.060;2024-03-02T07:51:57;10.50;89.20
10903;DHT22;5504;47.312;11.060;2024-03-02T07:54:24;10.50;90.40
10903;DHT22;5504;47.312;11.060;2024-03-02T07:56:50;10.60;90.30
10903;DHT22;5504;47.312;11.060;2024-03-02T07:59:15;10.30;90.20
10903;DHT22;5504;47.312;11.060;2024-03-02T08:01:41;10.30;90.30
10903;DHT22;5504;47.312;11.060;2024-03-02T08:04:07;10.30;90.30
10903;DHT22;5504;47.312;11.060;2024-03-02T08:06:33;10.30;90.40
10903;DHT22;5504;47.312;11.060;2024-03-02T08:09:00;10.20;90.60
10903;DHT22;5504;47.312;11.060;2024-03-02T08:11:26;10.50;90.90
10903;DHT22;5504;47.312;11.060;2024-03-02T08:13:56;10.90;90.60
10903;DHT22;5504;47.312;11.060;2024-03-02T08:16:23;11.50;90.70
10903;DHT22;5504;47.312;11.060;2024-03-02T08:18:52;11.70;87.80
10903;DHT22;5504;47.312;11.060;2024-03-02T08:21:18;11.00;89.30
10903;DHT22;5504;47.312;11.060;2024-03-02T08:23:44;11.60;88.90
10903;DHT22;5504;47.312;11.060;2024-03-02T08:26:10;12.10;89.20
10903;DHT22;5504;47.312;11.060;2024-03-02T08:28:36;12.40;85.90
10903;DHT22;5504;47.312;11.060;2024-03-02T08:31:03;12.20;87.30
10903;DHT22;5504;47.312;11.060;2024-03-02T08:33:29;12.30;87.10
10903;DHT22;5504;47.312;11.060;2024-03-02T08:35:55;12.40;86.10
10903;DHT22;5504;47.312;11.060;2024-03-02T08:38:21;12.10;84.20
10903;DHT22;5504;47.312;11.060;2024-03-02T08:40:47;12.50;86.90
10903;DHT22;5504;47.312;11.060;2024-03-02T08:43:13;12.20;85.30
10903;DHT22;5504;47.312;11.060;2024-03-02T08:45:39;12.50;86.80
10903;DHT22;5504;47.312;11.060;2024-03-02T08:48:08;12.80;84.10
10903;DHT22;5504;47.312;11.060;2024-03-02T08:50:35;12.90;83.00
10903;DHT22;5504;47.312;11.060;2024-03-02T08:53:01;13.20;82.70
10903;DHT22;5504;47.312;11.060;2024-03-02T08:55:27;12.90;81.30
10903;DHT22;5504;47.312;11.060;2024-03-02T08:57:53;13.00;82.20
10903;DHT22;5504;47.312;11.060;2024-03-02T09:00:19;13.20;82.40
10903;DHT22;5504;47.312;11.060;2024-03-02T09:02:45;13.70;79.30
10903;DHT22;5504;47.312;11.060;2024-03-02T09:05:11;14.00;78.50
10903;DHT22;5504;47.312;11.060;2024-03-02T09:07:36;14.20;78.70
10903;DHT22;5504;47.312;11.060;2024-03-02T09:10:05;14.50;77.30
10903;DHT22;5504;47.312;11.060;2024-03-02T09:12:32;14.60;75.90
10903;DHT22;5504;47.312;11.060;2024-03-02T09:14:58;14.60;75.80
10903;DHT22;5504;47.312;11.060;2024-03-02T09:17:24;14.00;74.60
10903;DHT22;5504;47.312;11.060;2024-03-02T09:19:50;14.00;78.00
10903;DHT22;5504;47.312;11.060;2024-03-02T09:22:18;14.00;76.10
10903;DHT22;5504;47.312;11.060;2024-03-02T09:24:44;14.50;77.40
10903;DHT22;5504;47.312;11.060;2024-03-02T09:27:10;14.70;76.50
10903;DHT22;5504;47.312;11.060;2024-03-02T09:29:36;14.40;75.40
10903;DHT22;5504;47.312;11.060;2024-03-02T09:32:02;13.90;75.60
10903;DHT22;5504;47.312;11.060;2024-03-02T09:34:28;13.70;77.50
10903;DHT22;5504;47.312;11.060;2024-03-02T09:36:53;14.00;78.50
10903;DHT22;5504;47.312;11.060;2024-03-02T09:39:20;14.20;77.50
10903;DHT22;5504;47.312;11.060;2024-03-02T09:41:46;14.10;76.30
10903;DHT22;5504;47.312;11.060;2024-03-02T09:44:13;14.40;75.80
10903;DHT22;5504;47.312;11.060;2024-03-02T09:46:39;14.70;75.50
10903;DHT22;5504;47.312;11.060;2024-03-02T09:49:05;15.00;74.60
10903;DHT22;5504;47.312;11.060;2024-03-02T09:51:32;15.30;74.30
10903;DHT22;5504;47.312;11.060;2024-03-02T09:54:01;15.50;73.40
10903;DHT22;5504;47.312;11.060;2024-03-02T09:56:26;15.90;73.40
10903;DHT22;5504;47.312;11.060;2024-03-02T09:58:52;16.20;71.60
10903;DHT22;5504;47.312;11.060;2024-03-02T10:01:18;16.40;70.20
10903;DHT22;5504;47.312;11.060;2024-03-02T10:03:44;16.00;67.80
10903;DHT22;5504;47.312;11.060;2024-03-02T10:06:25;15.50;69.40
10903;DHT22;5504;47.312;11.060;2024-03-02T10:08:51;15.70;71.20
10903;DHT22;5504;47.312;11.060;2024-03-02T10:14:06;15.50;70.50
10903;DHT22;5504;47.312;11.060;2024-03-02T10:16:40;15.50;69.10
10903;DHT22;5504;47.312;11.060;2024-03-02T10:19:20;16.00;69.20
10903;DHT22;5504;47.312;11.060;2024-03-02T10:21:50;16.40;67.20
10903;DHT22;5504;47.312;11.060;2024-03-02T10:24:17;16.90;67.70
10903;DHT22;5504;47.312;11.060;2024-03-02T10:26:43;17.10;65.50
10903;DHT22;5504;47.312;11.060;2024-03-02T10:29:09;17.30;63.90
10903;DHT22;5504;47.312;11.060;2024-03-02T10:31:40;17.00;63.80
10903;DHT22;5504;47.312;11.060;2024-03-02T10:34:11;16.20;63.70
10903;DHT22;5504;47.312;11.060;2024-03-02T10:36:37;15.80;65.60
10903;DHT22;5504;47.312;11.060;2024-03-02T10:39:07;15.90;68.50
10903;DHT22;5504;47.312;11.060;2024-03-02T10:41:35;16.20;66.20
10903;DHT22;5504;47.312;11.060;2024-03-02T10:44:05;16.30;65.80
10903;DHT22;5504;47.312;11.060;2024-03-02T10:46:33;16.60;64.30
10903;DHT22;5504;47.312;11.060;2024-03-02T10:49:02;17.00;65.50
10903;DHT22;5504;47.312;11.060;2024-03-02T10:51:33;17.30;63.60
10903;DHT22;5504;47.312;11.060;2024-03-02T10:54:02;17.20;63.70
10903;DHT22;5504;47.312;11.060;2024-03-02T10:56:32;17.50;62.00
10903;DHT22;5504;47.312;11.060;2024-03-02T11:01:39;17.60;59.80
10903;DHT22;5504;47.312;11.060;2024-03-02T11:04:08;17.90;64.00
10903;DHT22;5504;47.312;11.060;2024-03-02T11:06:35;17.40;60.60
10903;DHT22;5504;47.312;11.060;2024-03-02T11:09:06;17.40;60.50
10903;DHT22;5504;47.312;11.060;2024-03-02T11:11:43;17.70;59.80
10903;DHT22;5504;47.312;11.060;2024-03-02T11:14:14;16.70;59.10
10903;DHT22;5504;47.312;11.060;2024-03-02T11:16:41;17.70;62.10
10903;DHT22;5504;47.312;11.060;2024-03-02T11:19:14;18.70;59.70
10903;DHT22;5504;47.312;11.060;2024-03-02T11:21:41;19.20;56.50
10903;DHT22;5504;47.312;11.060;2024-03-02T11:26:49;20.30;56.30
10903;DHT22;5504;47.312;11.060;2024-03-02T11:32:03;21.70;52.90
10903;DHT22;5504;47.312;11.060;2024-03-02T11:34:33;22.10;53.30
10903;DHT22;5504;47.312;11.060;2024-03-02T11:37:01;22.60;52.50
10903;DHT22;5504;47.312;11.060;2024-03-02T11:39:28;20.60;50.50
10903;DHT22;5504;47.312;11.060;2024-03-02T11:41:55;20.30;54.20
10903;DHT22;5504;47.312;11.060;2024-03-02T11:44:21;21.00;54.10
10903;DHT22;5504;47.312;11.060;2024-03-02T11:46:52;19.50;53.70
10903;DHT22;5504;47.312;11.060;2024-03-02T11:52:05;18.10;55.40
10903;DHT22;5504;47.312;11.060;2024-03-02T11:54:36;19.10;55.90
10903;DHT22;5504;47.312;11.060;2024-03-02T11:57:05;18.00;53.60
10903;DHT22;5504;47.312;11.060;2024-03-02T11:59:32;17.50;53.10
10903;DHT22;5504;47.312;11.060;2024-03-02T12:01:58;17.60;55.10
10903;DHT22;5504;47.312;11.060;2024-03-02T12:04:25;18.20;53.30
10903;DHT22;5504;47.312;11.060;2024-03-02T12:06:55;19.30;52.80
10903;DHT22;5504;47.312;11.060;2024-03-02T12:09:22;19.20;51.20
10903;DHT22;5504;47.312;11.060;2024-03-02T12:11:48;20.00;52.40
10903;DHT22;5504;47.312;11.060;2024-03-02T12:14:13;20.70;52.50
10903;DHT22;5504;47.312;11.060;2024-03-02T12:16:43;20.70;51.70
10903;DHT22;5504;47.312;11.060;2024-03-02T12:19:09;20.90;51.70
10903;DHT22;5504;47.312;11.060;2024-03-02T12:21:35;20.90;50.50
10903;DHT22;5504;47.312;11.060;2024-03-02T12:24:01;20.30;51.60
10903;DHT22;5504;47.312;11.060;2024-03-02T12:26:28;20.80;50.10
10903;DHT22;5504;47.312;11.060;2024-03-02T12:28:54;21.60;50.50
10903;DHT22;5504;47.312;11.060;2024-03-02T12:31:20;20.00;48.70
10903;DHT22;5504;47.312;11.060;2024-03-02T12:33:46;19.60;49.10
10903;DHT22;5504;47.312;11.060;2024-03-02T12:36:13;19.70;53.00
10903;DHT22;5504;47.312;11.060;2024-03-02T12:38:43;19.00;49.70
10903;DHT22;5504;47.312;11.060;2024-03-02T12:41:09;19.10;51.80
10903;DHT22;5504;47.312;11.060;2024-03-02T12:43:35;19.50;51.20
10903;DHT22;5504;47.312;11.060;2024-03-02T12:46:01;19.70;50.50
10903;DHT22;5504;47.312;11.060;2024-03-02T12:48:28;18.80;51.30
10903;DHT22;5504;47.312;11.060;2024-03-02T12:50:53;19.20;50.90
10903;DHT22;5504;47.312;11.060;2024-03-02T12:53:21;19.40;53.70
10903;DHT22;5504;47.312;11.060;2024-03-02T12:55:48;20.20;52.50
10903;DHT22;5504;47.312;11.060;2024-03-02T12:58:19;20.60;50.20
10903;DHT22;5504;47.312;11.060;2024-03-02T13:00:46;20.60;50.50
10903;DHT22;5504;47.312;11.060;2024-03-02T13:03:12;20.20;48.80
10903;DHT22;5504;47.312;11.060;2024-03-02T13:05:39;20.20;51.60
10903;DHT22;5504;47.312;11.060;2024-03-02T13:08:06;21.10;50.10
10903;DHT22;5504;47.312;11.060;2024-03-02T13:10:33;21.40;48.50
10903;DHT22;5504;47.312;11.060;2024-03-02T13:12:59;21.30;48.30
10903;DHT22;5504;47.312;11.060;2024-03-02T13:15:26;21.20;49.30
10903;DHT22;5504;47.312;11.060;2024-03-02T13:17:52;20.60;48.80
10903;DHT22;5504;47.312;11.060;2024-03-02T13:20:18;20.20;50.40
10903;DHT22;5504;47.312;11.060;2024-03-02T13:22:45;18.70;48.40
10903;DHT22;5504;47.312;11.060;2024-03-02T13:25:11;18.10;51.60
10903;DHT22;5504;47.312;11.060;2024-03-02T13:27:37;18.80;51.40
10903;DHT22;5504;47.312;11.060;2024-03-02T13:30:03;20.00;51.50
10903;DHT22;5504;47.312;11.060;2024-03-02T13:32:31;21.00;50.10
10903;DHT22;5504;47.312;11.060;2024-03-02T13:34:58;20.40;48.30
10903;DHT22;5504;47.312;11.060;2024-03-02T13:37:23;19.10;48.40
10903;DHT22;5504;47.312;11.060;2024-03-02T13:39:49;18.80;51.00
10903;DHT22;5504;47.312;11.060;2024-03-02T13:42:15;19.70;51.60
10903;DHT22;5504;47.312;11.060;2024-03-02T13:44:43;20.00;50.10
10903;DHT22;5504;47.312;11.060;2024-03-02T13:47:11;19.50;51.10
10903;DHT22;5504;47.312;11.060;2024-03-02T13:49:36;19.30;51.70
10903;DHT22;5504;47.312;11.060;2024-03-02T13:52:05;18.90;49.60
10903;DHT22;5504;47.312;11.060;2024-03-02T13:54:41;18.20;49.60
10903;DHT22;5504;47.312;11.060;2024-03-02T13:57:07;18.40;50.10
10903;DHT22;5504;47.312;11.060;2024-03-02T13:59:34;18.90;52.00
10903;DHT22;5504;47.312;11.060;2024-03-02T14:02:03;19.10;49.60
10903;DHT22;5504;47.312;11.060;2024-03-02T14:04:34;19.80;52.80
10903;DHT22;5504;47.312;11.060;2024-03-02T14:07:00;20.60;51.30
10903;DHT22;5504;47.312;11.060;2024-03-02T14:09:26;21.10;49.60
10903;DHT22;5504;47.312;11.060;2024-03-02T14:11:53;21.10;49.30
10903;DHT22;5504;47.312;11.060;2024-03-02T14:14:19;21.10;47.00
10903;DHT22;5504;47.312;11.060;2024-03-02T14:16:45;18.90;48.40
10903;DHT22;5504;47.312;11.060;2024-03-02T14:19:11;19.50;50.30
10903;DHT22;5504;47.312;11.060;2024-03-02T14:21:38;19.60;49.60
10903;DHT22;5504;47.312;11.060;2024-03-02T14:24:04;19.30;48.60
10903;DHT22;5504;47.312;11.060;2024-03-02T14:26:30;19.40;48.90
10903;DHT22;5504;47.312;11.060;2024-03-02T14:28:56;19.10;49.00
10903;DHT22;5504;47.312;11.060;2024-03-02T14:31:22;19.00;48.20
10903;DHT22;5504;47.312;11.060;2024-03-02T14:33:48;18.80;50.10
10903;DHT22;5504;47.312;11.060;2024-03-02T14:36:13;18.90;48.90
10903;DHT22;5504;47.312;11.060;2024-03-02T14:38:39;17.70;50.10
10903;DHT22;5504;47.312;11.060;2024-03-02T14:41:05;17.30;52.30
10903;DHT22;5504;47.312;11.060;2024-03-02T14:43:31;17.50;51.10
10903;DHT22;5504;47.312;11.060;2024-03-02T14:45:57;17.20;49.30
10903;DHT22;5504;47.312;11.060;2024-03-02T14:48:24;16.40;51.10
10903;DHT22;5504;47.312;11.060;2024-03-02T14:50:50;17.00;53.10
10903;DHT22;5504;47.312;11.060;2024-03-02T14:53:16;17.30;50.60
10903;DHT22;5504;47.312;11.060;2024-03-02T14:55:42;17.70;52.70
10903;DHT22;5504;47.312;11.060;2024-03-02T14:58:08;18.00;54.00
10903;DHT22;5504;47.312;11.060;2024-03-02T15:00:34;18.10;50.80
10903;DHT22;5504;47.312;11.060;2024-03-02T15:02:59;18.20;48.70
10903;DHT22;5504;47.312;11.060;2024-03-02T15:05:25;18.50;49.00
10903;DHT22;5504;47.312;11.060;2024-03-02T15:07:52;18.90;49.70
10903;DHT22;5504;47.312;11.060;2024-03-02T15:10:18;18.90;48.00
10903;DHT22;5504;47.312;11.060;2024-03-02T15:12:44;18.80;48.80
10903;DHT22;5504;47.312;11.060;2024-03-02T15:15:10;18.70;47.80
10903;DHT22;5504;47.312;11.060;2024-03-02T15:17:37;18.10;47.10
10903;DHT22;5504;47.312;11.060;2024-03-02T15:20:03;17.60;47.40
10903;DHT22;5504;47.312;11.060;2024-03-02T15:22:30;17.60;50.00
10903;DHT22;5504;47.312;11.060;2024-03-02T15:24:55;17.70;49.20
10903;DHT22;5504;47.312;11.060;2024-03-02T15:27:21;17.40;47.80
10903;DHT22;5504;47.312;11.060;2024-03-02T15:29:47;17.50;49.30
10903;DHT22;5504;47.312;11.060;2024-03-02T15:32:15;17.40;48.70
10903;DHT22;5504;47.312;11.060;2024-03-02T15:34:41;17.70;49.20
10903;DHT22;5504;47.312;11.060;2024-03-02T15:37:08;17.20;49.30
10903;DHT22;5504;47.312;11.060;2024-03-02T15:39:34;17.50;49.40
10903;DHT22;5504;47.312;11.060;2024-03-02T15:42:00;17.80;48.70
10903;DHT22;5504;47.312;11.060;2024-03-02T15:44:27;17.50;47.40
10903;DHT22;5504;47.312;11.060;2024-03-02T15:46:52;17.30;48.10
10903;DHT22;5504;47.312;11.060;2024-03-02T15:49:18;17.30;48.80
10903;DHT22;5504;47.312;11.060;2024-03-02T15:51:44;17.30;48.10
10903;DHT22;5504;47.312;11.060;2024-03-02T15:54:10;16.90;48.80